Time;durP1;ratioP1;P1;durP2;ratioP2;P2;SDS_P1;SDS_P2;PMS_P1;PMS_P2;Temp;Humidity;BMP_temperature;BMP_pressure;BME280_temperature;BME280_humidity;BME280_pressure;Samples;Min_cycle;Max_cycle;Signal;HPM_P1;HPM_P2
2021/05/01 00:00:52;;;;;;;;;;;18.40;44.30;;;;;;487290;243;1211;-44
2021/05/01 00:02:54;;;;;;;;;;;18.40;44.40;;;;;;487569;244;1189;-44
2021/05/01 00:04:55;;;;;;;;;;;18.40;44.40;;;;;;487489;244;1049;-44
2021/05/01 00:06:57;;;;;;;;;;;18.30;44.50;;;;;;487428;243;1230;-44
2021/05/01 00:08:58;;;;;;;;;;;18.30;44.60;;;;;;487401;244;1081;-44
2021/05/01 00:11:01;;;;;;;;;;;18.20;44.60;;;;;;487473;244;1205;-44
2021/05/01 00:13:01;;;;;;;;;;;18.20;44.70;;;;;;487260;244;2226;-44
2021/05/01 00:15:02;;;;;;;;;;;18.20;44.90;;;;;;487624;243;1081;-44
2021/05/01 00:17:03;;;;;;;;;;;18.10;44.90;;;;;;487539;243;2186;-44
2021/05/01 00:19:06;;;;;;;;;;;18.10;45.00;;;;;;487253;243;1098;-44
2021/05/01 00:21:06;;;;;;;;;;;18.00;45.10;;;;;;487441;243;1522;-44
2021/05/01 00:23:07;;;;;;;;;;;18.10;45.00;;;;;;487232;244;1051;-44
2021/05/01 00:25:08;;;;;;;;;;;18.00;45.10;;;;;;487529;244;1055;-44
2021/05/01 00:27:10;;;;;;;;;;;18.00;45.20;;;;;;487455;244;1241;-44
2021/05/01 00:29:11;;;;;;;;;;;18.00;45.10;;;;;;487265;244;1109;-44
2021/05/01 00:31:13;;;;;;;;;;;18.00;45.20;;;;;;487544;243;1657;-44
2021/05/01 00:33:15;;;;;;;;;;;17.90;45.20;;;;;;487294;244;1156;-44
2021/05/01 00:35:16;;;;;;;;;;;17.90;45.30;;;;;;487528;244;1232;-44
2021/05/01 00:37:17;;;;;;;;;;;18.00;45.30;;;;;;487437;243;1221;-44
2021/05/01 00:39:19;;;;;;;;;;;17.90;45.40;;;;;;487726;243;1074;-44
2021/05/01 00:41:20;;;;;;;;;;;17.90;45.40;;;;;;487605;244;1189;-44
2021/05/01 00:43:21;;;;;;;;;;;17.80;45.40;;;;;;487649;244;1057;-44
2021/05/01 00:45:22;;;;;;;;;;;17.90;45.30;;;;;;487433;244;1192;-44
2021/05/01 00:47:24;;;;;;;;;;;17.90;45.40;;;;;;487173;244;1066;-44
2021/05/01 00:49:25;;;;;;;;;;;17.80;45.40;;;;;;487318;244;1098;-44
2021/05/01 00:51:26;;;;;;;;;;;17.80;45.50;;;;;;487096;244;1191;-44
2021/05/01 00:53:28;;;;;;;;;;;17.80;45.50;;;;;;487275;244;1057;-44
2021/05/01 00:55:29;;;;;;;;;;;17.80;45.50;;;;;;487207;244;2195;-44
2021/05/01 00:57:30;;;;;;;;;;;17.80;45.50;;;;;;487533;244;1357;-44
2021/05/01 00:59:31;;;;;;;;;;;17.80;45.50;;;;;;487500;243;1128;-44
2021/05/01 01:01:33;;;;;;;;;;;17.80;45.50;;;;;;487308;244;1194;-44
2021/05/01 01:03:34;;;;;;;;;;;17.80;45.50;;;;;;487326;244;1056;-44
2021/05/01 01:05:35;;;;;;;;;;;17.80;45.50;;;;;;487336;244;1045;-44
2021/05/01 01:07:36;;;;;;;;;;;17.80;45.50;;;;;;487573;244;1295;-44
2021/05/01 01:09:38;;;;;;;;;;;17.80;45.60;;;;;;487279;244;1025;-44
2021/05/01 01:11:39;;;;;;;;;;;17.80;45.50;;;;;;487515;243;1275;-44
2021/05/01 01:13:40;;;;;;;;;;;17.80;45.50;;;;;;487414;243;1102;-44
2021/05/01 01:15:42;;;;;;;;;;;17.80;45.50;;;;;;487241;244;2143;-44
2021/05/01 01:17:43;;;;;;;;;;;17.70;45.50;;;;;;487401;243;1279;-44
2021/05/01 01:19:44;;;;;;;;;;;17.70;45.50;;;;;;487408;244;1067;-44
2021/05/01 01:21:46;;;;;;;;;;;17.70;45.50;;;;;;487389;243;1161;-44
2021/05/01 01:23:47;;;;;;;;;;;17.70;45.60;;;;;;487329;244;1190;-44
2021/05/01 01:25:48;;;;;;;;;;;17.70;45.60;;;;;;487347;244;1109;-44
2021/05/01 01:27:50;;;;;;;;;;;17.70;45.60;;;;;;487370;244;1263;-44
2021/05/01 01:29:51;;;;;;;;;;;17.70;45.50;;;;;;487499;243;1105;-44
2021/05/01 01:31:52;;;;;;;;;;;17.70;45.60;;;;;;487745;244;1316;-44
2021/05/01 01:33:54;;;;;;;;;;;17.60;45.60;;;;;;487784;244;1047;-44
2021/05/01 01:35:55;;;;;;;;;;;17.60;45.70;;;;;;487745;244;2151;-44
2021/05/01 01:37:56;;;;;;;;;;;17.60;45.70;;;;;;487329;243;1210;-44
2021/05/01 01:39:57;;;;;;;;;;;17.60;45.70;;;;;;487242;244;1078;-44
2021/05/01 01:41:59;;;;;;;;;;;17.60;45.60;;;;;;487310;244;1671;-44
2021/05/01 01:44:00;;;;;;;;;;;17.70;45.60;;;;;;487507;244;1029;-44
2021/05/01 01:46:01;;;;;;;;;;;17.60;45.60;;;;;;487449;244;1262;-44
2021/05/01 01:48:02;;;;;;;;;;;17.60;45.60;;;;;;487529;244;1158;-44
2021/05/01 01:50:04;;;;;;;;;;;17.60;45.60;;;;;;487749;244;1024;-44
2021/05/01 01:52:05;;;;;;;;;;;17.60;45.60;;;;;;487274;244;1455;-44
2021/05/01 01:54:06;;;;;;;;;;;17.60;45.50;;;;;;487352;244;1167;-44
2021/05/01 01:56:08;;;;;;;;;;;17.70;45.40;;;;;;487519;244;2135;-44
2021/05/01 01:58:09;;;;;;;;;;;18.00;44.70;;;;;;487544;243;1176;-44
2021/05/01 02:00:10;;;;;;;;;;;18.40;43.80;;;;;;487771;243;1076;-44
2021/05/01 02:02:12;;;;;;;;;;;18.70;43.00;;;;;;487791;243;1227;-44
2021/05/01 02:04:13;;;;;;;;;;;19.00;42.60;;;;;;487264;244;1091;-44
2021/05/01 02:06:16;;;;;;;;;;;19.10;42.10;;;;;;487359;244;1473;-44
2021/05/01 02:08:16;;;;;;;;;;;19.30;41.80;;;;;;487271;244;1566;-44
2021/05/01 02:10:17;;;;;;;;;;;19.40;41.60;;;;;;487217;243;1245;-44
2021/05/01 02:12:18;;;;;;;;;;;19.50;41.40;;;;;;487224;244;1246;-44
2021/05/01 02:14:19;;;;;;;;;;;19.60;41.30;;;;;;487452;243;1092;-44
2021/05/01 02:16:21;;;;;;;;;;;19.60;41.10;;;;;;487441;244;2139;-44
2021/05/01 02:18:22;;;;;;;;;;;19.60;40.90;;;;;;487789;243;1065;-44
2021/05/01 02:20:23;;;;;;;;;;;19.70;40.90;;;;;;487548;243;1133;-44
2021/05/01 02:22:24;;;;;;;;;;;19.80;40.80;;;;;;487248;244;1508;-44
2021/05/01 02:24:26;;;;;;;;;;;19.80;40.70;;;;;;487306;244;1194;-44
2021/05/01 02:26:27;;;;;;;;;;;19.90;40.60;;;;;;487190;243;1317;-45
2021/05/01 02:28:28;;;;;;;;;;;19.90;40.50;;;;;;487352;244;1104;-44
2021/05/01 02:30:30;;;;;;;;;;;19.90;40.40;;;;;;487499;243;1422;-44
2021/05/01 02:32:31;;;;;;;;;;;20.00;40.40;;;;;;487331;244;1115;-44
2021/05/01 02:34:32;;;;;;;;;;;20.00;40.30;;;;;;487297;244;1086;-44
2021/05/01 02:36:33;;;;;;;;;;;20.00;40.30;;;;;;487228;243;2198;-44
2021/05/01 02:38:35;;;;;;;;;;;20.10;40.20;;;;;;487181;244;1215;-44
2021/05/01 02:40:36;;;;;;;;;;;20.10;40.10;;;;;;487637;244;2134;-44
2021/05/01 02:42:37;;;;;;;;;;;20.20;40.10;;;;;;487297;244;1249;-44
2021/05/01 02:44:39;;;;;;;;;;;20.20;40.00;;;;;;487557;244;1066;-44
2021/05/01 02:46:40;;;;;;;;;;;20.20;40.00;;;;;;487478;243;1132;-45
2021/05/01 02:48:41;;;;;;;;;;;20.20;40.00;;;;;;487305;244;1081;-45
2021/05/01 02:50:42;;;;;;;;;;;20.30;39.90;;;;;;487646;243;1056;-45
2021/05/01 02:52:44;;;;;;;;;;;20.30;39.90;;;;;;487341;243;1405;-44
2021/05/01 02:54:45;;;;;;;;;;;20.30;39.80;;;;;;487280;244;1071;-44
2021/05/01 02:56:46;;;;;;;;;;;20.40;39.80;;;;;;487269;243;2194;-44
2021/05/01 02:58:48;;;;;;;;;;;20.30;39.70;;;;;;487242;244;1068;-44
2021/05/01 03:00:49;;;;;;;;;;;20.40;39.70;;;;;;487270;244;1107;-44
2021/05/01 03:02:50;;;;;;;;;;;20.40;39.70;;;;;;487177;244;1271;-44
2021/05/01 03:04:52;;;;;;;;;;;20.40;39.70;;;;;;487216;244;1326;-45
2021/05/01 03:06:53;;;;;;;;;;;20.40;39.60;;;;;;487260;244;2253;-44
2021/05/01 03:08:54;;;;;;;;;;;20.40;39.70;;;;;;487323;244;1125;-45
2021/05/01 03:10:55;;;;;;;;;;;20.50;39.60;;;;;;487369;244;1068;-44
2021/05/01 03:12:57;;;;;;;;;;;20.50;39.60;;;;;;487246;244;1203;-44
2021/05/01 03:14:58;;;;;;;;;;;20.50;39.50;;;;;;487291;244;1035;-44
2021/05/01 03:16:59;;;;;;;;;;;20.50;39.50;;;;;;487321;244;2147;-44
2021/05/01 03:19:00;;;;;;;;;;;20.60;39.50;;;;;;487545;244;1070;-44
2021/05/01 03:21:02;;;;;;;;;;;20.50;39.50;;;;;;487701;242;1148;-45
2021/05/01 03:23:07;;;;;;;;;;;20.60;39.50;;;;;;487311;244;1215;-45
2021/05/01 03:25:04;;;;;;;;;;;20.60;39.40;;;;;;487025;244;2166;-44
2021/05/01 03:27:05;;;;;;;;;;;20.60;39.40;;;;;;487177;244;1518;-45
2021/05/01 03:29:07;;;;;;;;;;;20.60;39.40;;;;;;487421;244;1081;-44
2021/05/01 03:31:08;;;;;;;;;;;20.60;39.40;;;;;;487251;244;1090;-44
2021/05/01 03:33:09;;;;;;;;;;;20.60;39.30;;;;;;487151;244;1065;-44
2021/05/01 03:35:11;;;;;;;;;;;20.70;39.40;;;;;;487415;244;1141;-45
2021/05/01 03:37:12;;;;;;;;;;;20.60;39.30;;;;;;487545;244;2158;-44
2021/05/01 03:39:16;;;;;;;;;;;20.70;39.40;;;;;;487613;244;1120;-44
2021/05/01 03:41:15;;;;;;;;;;;20.70;39.30;;;;;;487274;243;2298;-45
2021/05/01 03:43:16;;;;;;;;;;;20.70;39.30;;;;;;487466;243;1035;-44
2021/05/01 03:45:17;;;;;;;;;;;20.70;39.30;;;;;;487220;244;1122;-45
2021/05/01 03:47:18;;;;;;;;;;;20.70;39.30;;;;;;487570;244;1086;-44
2021/05/01 03:49:20;;;;;;;;;;;20.70;39.40;;;;;;487425;244;1112;-45
2021/05/01 03:51:21;;;;;;;;;;;20.80;39.20;;;;;;487214;244;1210;-44
2021/05/01 03:53:22;;;;;;;;;;;20.80;39.30;;;;;;487373;244;1031;-45
2021/05/01 03:55:24;;;;;;;;;;;20.40;39.80;;;;;;487275;243;1473;-44
2021/05/01 03:57:25;;;;;;;;;;;20.10;40.60;;;;;;487414;244;2143;-44
2021/05/01 03:59:26;;;;;;;;;;;19.80;41.20;;;;;;487366;243;1072;-45
2021/05/01 04:01:27;;;;;;;;;;;19.70;41.60;;;;;;487122;242;1299;-44
2021/05/01 04:03:29;;;;;;;;;;;19.50;41.90;;;;;;487382;244;1133;-44
2021/05/01 04:05:30;;;;;;;;;;;19.40;42.10;;;;;;487514;243;1093;-44
2021/05/01 04:07:31;;;;;;;;;;;19.30;42.40;;;;;;487252;244;1173;-44
2021/05/01 04:09:33;;;;;;;;;;;19.30;42.60;;;;;;487295;243;1146;-44
2021/05/01 04:11:34;;;;;;;;;;;19.20;42.70;;;;;;487495;241;1133;-44
2021/05/01 04:13:39;;;;;;;;;;;19.20;42.80;;;;;;487360;244;1087;-44
2021/05/01 04:15:36;;;;;;;;;;;19.10;42.90;;;;;;487090;243;1528;-44
2021/05/01 04:17:38;;;;;;;;;;;19.10;43.00;;;;;;487463;244;2166;-44
2021/05/01 04:19:39;;;;;;;;;;;19.00;43.10;;;;;;487393;243;1096;-44
2021/05/01 04:21:40;;;;;;;;;;;19.00;43.20;;;;;;487410;244;1172;-44
2021/05/01 04:23:41;;;;;;;;;;;19.00;43.30;;;;;;487195;244;1069;-44
2021/05/01 04:25:43;;;;;;;;;;;19.00;43.30;;;;;;487361;243;1279;-45
2021/05/01 04:27:44;;;;;;;;;;;19.00;43.30;;;;;;487340;244;1202;-44
2021/05/01 04:29:45;;;;;;;;;;;18.90;43.30;;;;;;487279;244;1079;-44
2021/05/01 04:31:47;;;;;;;;;;;18.90;43.40;;;;;;487283;244;1337;-44
2021/05/01 04:33:48;;;;;;;;;;;18.80;43.50;;;;;;487432;244;1039;-44
2021/05/01 04:35:49;;;;;;;;;;;18.80;43.50;;;;;;487256;243;1136;-44
2021/05/01 04:37:50;;;;;;;;;;;18.80;43.60;;;;;;487232;244;2143;-44
2021/05/01 04:39:52;;;;;;;;;;;18.80;43.60;;;;;;487409;244;1123;-44
2021/05/01 04:41:53;;;;;;;;;;;18.80;43.70;;;;;;487454;244;1312;-45
2021/05/01 04:43:54;;;;;;;;;;;18.80;43.60;;;;;;487280;244;1037;-44
2021/05/01 04:45:56;;;;;;;;;;;18.80;43.70;;;;;;487439;242;1479;-44
2021/05/01 04:47:57;;;;;;;;;;;18.80;43.70;;;;;;487627;243;1084;-44
2021/05/01 04:49:58;;;;;;;;;;;18.70;43.70;;;;;;487390;244;1088;-44
2021/05/01 04:51:59;;;;;;;;;;;18.70;43.80;;;;;;487367;244;1418;-44
2021/05/01 04:54:01;;;;;;;;;;;18.70;43.80;;;;;;487299;244;1069;-44
2021/05/01 04:56:02;;;;;;;;;;;18.70;43.70;;;;;;487416;244;1190;-44
2021/05/01 04:58:03;;;;;;;;;;;18.70;43.80;;;;;;487297;244;2147;-44
2021/05/01 05:00:05;;;;;;;;;;;18.70;43.80;;;;;;487636;244;1119;-44
2021/05/01 05:02:06;;;;;;;;;;;18.70;43.80;;;;;;487357;244;1154;-44
2021/05/01 05:04:07;;;;;;;;;;;18.70;43.80;;;;;;487423;243;1080;-44
2021/05/01 05:06:08;;;;;;;;;;;18.70;43.80;;;;;;487416;243;1083;-44
2021/05/01 05:08:10;;;;;;;;;;;18.70;43.90;;;;;;487353;243;1120;-44
2021/05/01 05:10:11;;;;;;;;;;;18.70;43.90;;;;;;487276;244;2196;-44
2021/05/01 05:12:12;;;;;;;;;;;18.70;43.90;;;;;;487474;244;1203;-44
2021/05/01 05:14:14;;;;;;;;;;;18.60;44.00;;;;;;487456;244;1060;-44
2021/05/01 05:16:15;;;;;;;;;;;18.60;44.00;;;;;;487206;244;1127;-44
2021/05/01 05:18:16;;;;;;;;;;;18.60;44.00;;;;;;487375;244;2127;-44
2021/05/01 05:20:18;;;;;;;;;;;18.60;43.90;;;;;;487249;244;1112;-44
2021/05/01 05:22:19;;;;;;;;;;;18.60;43.90;;;;;;487746;244;1159;-44
2021/05/01 05:24:21;;;;;;;;;;;18.60;44.00;;;;;;487253;244;1203;-44
2021/05/01 05:26:23;;;;;;;;;;;18.60;44.00;;;;;;487368;244;1158;-44
2021/05/01 05:28:24;;;;;;;;;;;18.60;44.00;;;;;;487242;244;2623;-44
2021/05/01 05:30:25;;;;;;;;;;;18.60;44.00;;;;;;487499;244;1084;-44
2021/05/01 05:32:26;;;;;;;;;;;18.60;44.00;;;;;;487570;243;1052;-44
2021/05/01 05:34:28;;;;;;;;;;;18.60;44.00;;;;;;487570;244;1078;-44
2021/05/01 05:36:29;;;;;;;;;;;18.60;43.90;;;;;;487358;244;1359;-44
2021/05/01 05:38:30;;;;;;;;;;;18.60;43.90;;;;;;487426;243;2202;-44
2021/05/01 05:40:32;;;;;;;;;;;18.60;43.90;;;;;;487198;243;1288;-45
2021/05/01 05:42:33;;;;;;;;;;;18.60;43.90;;;;;;487604;244;2232;-44
2021/05/01 05:44:34;;;;;;;;;;;18.60;43.90;;;;;;487224;244;1164;-44
2021/05/01 05:46:36;;;;;;;;;;;18.60;43.90;;;;;;487485;244;1171;-44
2021/05/01 05:48:37;;;;;;;;;;;18.60;43.80;;;;;;487310;244;1101;-44
2021/05/01 05:50:38;;;;;;;;;;;18.70;43.80;;;;;;487734;244;1172;-44
2021/05/01 05:52:39;;;;;;;;;;;18.70;43.80;;;;;;487755;244;1256;-44
2021/05/01 05:54:41;;;;;;;;;;;18.60;43.80;;;;;;487222;244;1103;-44
2021/05/01 05:56:42;;;;;;;;;;;18.60;43.90;;;;;;487327;244;1148;-44
2021/05/01 05:58:43;;;;;;;;;;;18.60;43.80;;;;;;487457;244;2158;-44
2021/05/01 06:00:44;;;;;;;;;;;18.60;43.80;;;;;;487247;244;1255;-44
2021/05/01 06:02:46;;;;;;;;;;;18.60;43.80;;;;;;487435;243;1178;-44
2021/05/01 06:04:47;;;;;;;;;;;18.60;43.80;;;;;;487509;243;1210;-44
2021/05/01 06:06:48;;;;;;;;;;;18.60;43.80;;;;;;487284;241;1342;-44
2021/05/01 06:08:50;;;;;;;;;;;18.60;43.70;;;;;;487415;244;1077;-44
2021/05/01 06:10:51;;;;;;;;;;;18.70;43.70;;;;;;487150;244;1185;-44
2021/05/01 06:12:52;;;;;;;;;;;18.70;43.50;;;;;;487386;244;1148;-44
2021/05/01 06:14:54;;;;;;;;;;;18.70;43.50;;;;;;487224;244;1111;-45
2021/05/01 06:16:55;;;;;;;;;;;18.70;43.50;;;;;;487238;244;1230;-44
2021/05/01 06:18:56;;;;;;;;;;;18.80;43.50;;;;;;487319;244;2151;-44
2021/05/01 06:20:57;;;;;;;;;;;18.70;43.50;;;;;;487325;244;1207;-44
2021/05/01 06:22:59;;;;;;;;;;;18.70;43.60;;;;;;487408;244;1268;-44
2021/05/01 06:25:00;;;;;;;;;;;18.70;43.60;;;;;;487274;244;1275;-44
2021/05/01 06:27:02;;;;;;;;;;;18.70;43.60;;;;;;487424;244;1189;-44
2021/05/01 06:29:03;;;;;;;;;;;18.70;43.60;;;;;;487407;244;1058;-44
2021/05/01 06:31:04;;;;;;;;;;;18.70;43.60;;;;;;487709;244;1065;-44
2021/05/01 06:33:05;;;;;;;;;;;18.60;43.80;;;;;;487585;244;1303;-44
2021/05/01 06:35:07;;;;;;;;;;;18.60;43.90;;;;;;487215;244;1104;-44
2021/05/01 06:37:08;;;;;;;;;;;18.50;44.00;;;;;;487449;244;1178;-44
2021/05/01 06:39:12;;;;;;;;;;;18.40;44.30;;;;;;487266;243;2190;-44
2021/05/01 06:41:11;;;;;;;;;;;18.30;44.50;;;;;;487112;243;2545;-44
2021/05/01 06:43:14;;;;;;;;;;;18.20;44.60;;;;;;487767;244;1250;-44
2021/05/01 06:45:14;;;;;;;;;;;18.10;44.80;;;;;;487239;244;2076;-44
2021/05/01 06:47:15;;;;;;;;;;;18.00;45.00;;;;;;487391;243;2336;-44
2021/05/01 06:49:16;;;;;;;;;;;18.00;45.10;;;;;;487401;244;1052;-44
2021/05/01 06:51:17;;;;;;;;;;;18.00;45.20;;;;;;487288;244;1088;-44
2021/05/01 06:53:27;;;;;;;;;;;17.90;45.40;;;;;;487751;244;1081;-44
2021/05/01 06:55:20;;;;;;;;;;;17.90;45.50;;;;;;487017;243;1862;-44
2021/05/01 06:57:21;;;;;;;;;;;17.80;45.50;;;;;;487141;243;1305;-44
2021/05/01 06:59:22;;;;;;;;;;;17.80;45.60;;;;;;487280;243;2199;-44
2021/05/01 07:01:24;;;;;;;;;;;17.80;45.50;;;;;;487495;243;1393;-44
2021/05/01 07:03:25;;;;;;;;;;;17.80;45.70;;;;;;487643;243;1176;-44
2021/05/01 07:05:27;;;;;;;;;;;17.70;45.60;;;;;;487473;243;1046;-44
2021/05/01 07:07:28;;;;;;;;;;;17.70;45.60;;;;;;487231;243;1191;-44
2021/05/01 07:09:29;;;;;;;;;;;17.80;45.70;;;;;;487749;244;1080;-44
2021/05/01 07:11:31;;;;;;;;;;;17.80;45.70;;;;;;487119;244;1677;-44
2021/05/01 07:13:32;;;;;;;;;;;17.80;45.70;;;;;;487726;244;1290;-44
2021/05/01 07:15:34;;;;;;;;;;;17.80;45.70;;;;;;487319;244;1046;-44
2021/05/01 07:17:35;;;;;;;;;;;17.70;45.70;;;;;;487279;244;2191;-44
2021/05/01 07:19:36;;;;;;;;;;;17.70;45.80;;;;;;487578;243;1106;-44
2021/05/01 07:21:37;;;;;;;;;;;17.70;45.90;;;;;;487070;244;1217;-44
2021/05/01 07:23:39;;;;;;;;;;;17.70;45.90;;;;;;487510;244;1076;-44
2021/05/01 07:25:41;;;;;;;;;;;17.70;45.80;;;;;;487320;244;1274;-44
2021/05/01 07:27:41;;;;;;;;;;;17.70;45.70;;;;;;487073;244;1655;-44
2021/05/01 07:29:42;;;;;;;;;;;17.70;45.70;;;;;;487308;243;1104;-45
2021/05/01 07:31:44;;;;;;;;;;;17.70;45.80;;;;;;487465;244;1341;-44
2021/05/01 07:33:45;;;;;;;;;;;17.70;45.70;;;;;;487410;244;1132;-44
2021/05/01 07:35:46;;;;;;;;;;;17.70;45.60;;;;;;487406;244;1056;-44
2021/05/01 07:37:48;;;;;;;;;;;17.80;45.60;;;;;;487468;243;2194;-44
2021/05/01 07:39:49;;;;;;;;;;;18.00;45.10;;;;;;487285;244;1041;-44
2021/05/01 07:41:56;;;;;;;;;;;18.40;44.20;;;;;;487302;244;1359;-45
2021/05/01 07:43:51;;;;;;;;;;;18.70;43.40;;;;;;487020;244;2375;-44
2021/05/01 07:45:53;;;;;;;;;;;18.90;42.80;;;;;;487453;244;1062;-44
2021/05/01 07:47:55;;;;;;;;;;;19.10;42.40;;;;;;487663;244;1063;-44
2021/05/01 07:49:55;;;;;;;;;;;19.30;42.10;;;;;;487343;244;1416;-44
2021/05/01 07:51:56;;;;;;;;;;;19.40;41.80;;;;;;487524;243;1092;-44
2021/05/01 07:53:58;;;;;;;;;;;19.50;41.60;;;;;;487314;244;1127;-44
2021/05/01 07:56:00;;;;;;;;;;;19.60;41.50;;;;;;487362;243;1078;-44
2021/05/01 07:58:01;;;;;;;;;;;19.60;41.30;;;;;;487150;244;2167;-45
2021/05/01 08:00:02;;;;;;;;;;;19.60;41.20;;;;;;487563;244;1084;-45
2021/05/01 08:02:03;;;;;;;;;;;19.70;41.10;;;;;;487247;243;1210;-44
2021/05/01 08:04:05;;;;;;;;;;;19.80;41.00;;;;;;487255;244;1249;-44
2021/05/01 08:06:06;;;;;;;;;;;19.80;40.90;;;;;;487343;242;1428;-44
2021/05/01 08:08:07;;;;;;;;;;;19.80;40.80;;;;;;487469;244;1275;-45
2021/05/01 08:10:09;;;;;;;;;;;19.90;40.80;;;;;;487273;243;1098;-44
2021/05/01 08:12:10;;;;;;;;;;;19.90;40.70;;;;;;487373;244;1190;-44
2021/05/01 08:14:11;;;;;;;;;;;20.00;40.70;;;;;;487345;244;1111;-44
2021/05/01 08:16:13;;;;;;;;;;;20.00;40.60;;;;;;487124;244;1264;-44
2021/05/01 08:18:14;;;;;;;;;;;20.00;40.50;;;;;;487295;244;2148;-44
2021/05/01 08:20:15;;;;;;;;;;;20.00;40.50;;;;;;487225;244;1073;-45
2021/05/01 08:22:16;;;;;;;;;;;20.10;40.40;;;;;;487208;244;1191;-44
2021/05/01 08:24:18;;;;;;;;;;;20.10;40.40;;;;;;487552;243;1107;-44
2021/05/01 08:26:19;;;;;;;;;;;20.10;40.30;;;;;;487329;244;1166;-45
2021/05/01 08:28:20;;;;;;;;;;;20.20;40.30;;;;;;487534;244;1157;-44
2021/05/01 08:30:21;;;;;;;;;;;20.20;40.30;;;;;;487294;244;1187;-44
2021/05/01 08:32:23;;;;;;;;;;;20.20;40.30;;;;;;487330;243;1305;-44
2021/05/01 08:34:24;;;;;;;;;;;20.20;40.20;;;;;;487492;243;1103;-44
2021/05/01 08:36:26;;;;;;;;;;;20.20;40.10;;;;;;487553;243;1122;-45
2021/05/01 08:38:31;;;;;;;;;;;20.30;40.10;;;;;;487372;244;2139;-45
2021/05/01 08:40:30;;;;;;;;;;;20.30;40.10;;;;;;487146;243;1443;-44
2021/05/01 08:42:30;;;;;;;;;;;20.30;40.00;;;;;;487070;244;1851;-44
2021/05/01 08:44:31;;;;;;;;;;;20.40;40.10;;;;;;487162;244;1068;-45
2021/05/01 08:46:32;;;;;;;;;;;20.30;40.00;;;;;;487383;243;1513;-44
2021/05/01 08:48:34;;;;;;;;;;;20.40;40.10;;;;;;487232;243;1102;-44
2021/05/01 08:50:35;;;;;;;;;;;20.40;40.00;;;;;;487293;243;1246;-44
2021/05/01 08:52:36;;;;;;;;;;;20.40;39.90;;;;;;487407;244;1193;-44
2021/05/01 08:54:38;;;;;;;;;;;20.40;40.00;;;;;;487455;244;1086;-44
2021/05/01 08:56:39;;;;;;;;;;;20.40;39.90;;;;;;487212;244;1487;-45
2021/05/01 08:58:40;;;;;;;;;;;20.40;39.90;;;;;;487299;244;2167;-44
2021/05/01 09:00:41;;;;;;;;;;;20.50;39.90;;;;;;487387;244;1073;-45
2021/05/01 09:02:43;;;;;;;;;;;20.50;39.90;;;;;;487281;244;1055;-45
2021/05/01 09:04:44;;;;;;;;;;;20.50;39.80;;;;;;487357;244;1086;-44
2021/05/01 09:06:45;;;;;;;;;;;20.60;39.90;;;;;;487296;243;1100;-44
2021/05/01 09:08:47;;;;;;;;;;;20.60;39.80;;;;;;487375;243;1044;-45
2021/05/01 09:10:49;;;;;;;;;;;20.60;39.80;;;;;;487256;243;1421;-44
2021/05/01 09:12:49;;;;;;;;;;;20.60;39.80;;;;;;487239;244;1845;-45
2021/05/01 09:14:51;;;;;;;;;;;20.60;39.70;;;;;;487292;244;1154;-45
2021/05/01 09:16:52;;;;;;;;;;;20.60;39.70;;;;;;487672;244;1338;-45
2021/05/01 09:18:55;;;;;;;;;;;20.60;39.70;;;;;;487236;244;2198;-45
2021/05/01 09:20:55;;;;;;;;;;;20.60;39.70;;;;;;487171;244;2367;-44
2021/05/01 09:22:56;;;;;;;;;;;20.70;39.70;;;;;;487218;244;1208;-44
2021/05/01 09:24:57;;;;;;;;;;;20.70;39.70;;;;;;487344;243;1245;-45
2021/05/01 09:26:59;;;;;;;;;;;20.70;39.70;;;;;;487576;244;1372;-45
2021/05/01 09:29:00;;;;;;;;;;;20.70;39.70;;;;;;487601;243;1287;-44
2021/05/01 09:31:01;;;;;;;;;;;20.70;39.70;;;;;;487316;244;1387;-44
2021/05/01 09:33:02;;;;;;;;;;;20.70;39.60;;;;;;487286;243;1168;-44
2021/05/01 09:35:04;;;;;;;;;;;20.70;39.50;;;;;;487230;243;1076;-45
2021/05/01 09:37:05;;;;;;;;;;;20.80;39.60;;;;;;487342;244;1398;-45
2021/05/01 09:39:07;;;;;;;;;;;20.80;39.60;;;;;;487287;243;2198;-45
2021/05/01 09:41:08;;;;;;;;;;;20.80;39.50;;;;;;487432;244;1462;-45
2021/05/01 09:43:09;;;;;;;;;;;20.80;39.60;;;;;;487273;244;1098;-44
2021/05/01 09:45:10;;;;;;;;;;;20.80;39.50;;;;;;487236;244;1187;-44
2021/05/01 09:47:11;;;;;;;;;;;20.80;39.50;;;;;;487225;244;1537;-45
2021/05/01 09:49:13;;;;;;;;;;;20.80;39.40;;;;;;487438;243;1068;-45
2021/05/01 09:51:14;;;;;;;;;;;20.80;39.50;;;;;;487261;244;1161;-44
2021/05/01 09:53:17;;;;;;;;;;;20.80;39.50;;;;;;487354;244;1094;-45
2021/05/01 09:55:17;;;;;;;;;;;20.90;39.50;;;;;;487176;244;1671;-44
2021/05/01 09:57:18;;;;;;;;;;;20.90;39.50;;;;;;487272;244;1136;-44
2021/05/01 09:59:19;;;;;;;;;;;20.90;39.50;;;;;;487477;244;2182;-45
2021/05/01 10:01:20;;;;;;;;;;;20.90;39.40;;;;;;487429;243;1082;-44
2021/05/01 10:03:22;;;;;;;;;;;20.90;39.40;;;;;;487383;243;1097;-44
2021/05/01 10:05:23;;;;;;;;;;;20.90;39.40;;;;;;487232;243;1062;-45
2021/05/01 10:07:24;;;;;;;;;;;20.90;39.40;;;;;;487112;243;1025;-44
2021/05/01 10:09:25;;;;;;;;;;;20.90;39.30;;;;;;487448;244;1046;-44
2021/05/01 10:11:29;;;;;;;;;;;20.90;39.30;;;;;;487608;243;1047;-44
2021/05/01 10:13:29;;;;;;;;;;;20.90;39.30;;;;;;487553;243;2862;-45
2021/05/01 10:15:30;;;;;;;;;;;21.00;39.40;;;;;;487366;244;1148;-45
2021/05/01 10:17:31;;;;;;;;;;;21.00;39.40;;;;;;487309;244;1320;-44
2021/05/01 10:19:33;;;;;;;;;;;20.90;39.40;;;;;;487216;244;2285;-44
2021/05/01 10:21:34;;;;;;;;;;;21.00;39.30;;;;;;487267;244;1155;-44
2021/05/01 10:23:35;;;;;;;;;;;20.80;39.70;;;;;;487337;244;1083;-45
2021/05/01 10:25:36;;;;;;;;;;;20.30;40.70;;;;;;487214;244;1364;-44
2021/05/01 10:27:38;;;;;;;;;;;19.80;41.80;;;;;;487178;244;1303;-44
2021/05/01 10:29:41;;;;;;;;;;;19.50;42.50;;;;;;487522;243;1201;-44
2021/05/01 10:31:40;;;;;;;;;;;19.20;42.90;;;;;;487012;244;1939;-44
2021/05/01 10:33:42;;;;;;;;;;;19.10;43.40;;;;;;487179;244;1087;-44
2021/05/01 10:35:43;;;;;;;;;;;19.00;43.80;;;;;;487222;242;1239;-44
2021/05/01 10:37:44;;;;;;;;;;;18.90;43.90;;;;;;487555;244;1206;-44
2021/05/01 10:39:45;;;;;;;;;;;18.80;43.90;;;;;;487237;244;2143;-44
2021/05/01 10:41:47;;;;;;;;;;;18.80;44.20;;;;;;487326;244;1147;-44
2021/05/01 10:43:48;;;;;;;;;;;18.70;44.30;;;;;;487466;244;1067;-44
2021/05/01 10:45:49;;;;;;;;;;;18.60;44.60;;;;;;487204;244;1664;-44
2021/05/01 10:47:51;;;;;;;;;;;18.50;44.70;;;;;;487231;244;1080;-44
2021/05/01 10:49:55;;;;;;;;;;;18.50;44.70;;;;;;487413;244;1182;-44
2021/05/01 10:51:54;;;;;;;;;;;18.50;44.80;;;;;;487094;242;2283;-44
2021/05/01 10:53:54;;;;;;;;;;;18.40;44.90;;;;;;487269;244;1077;-44
2021/05/01 10:55:56;;;;;;;;;;;18.40;45.00;;;;;;487497;244;1433;-44
2021/05/01 10:57:57;;;;;;;;;;;18.40;45.00;;;;;;487132;244;1209;-44
2021/05/01 10:59:59;;;;;;;;;;;18.40;45.00;;;;;;487158;244;2191;-44
2021/05/01 11:02:01;;;;;;;;;;;18.40;45.00;;;;;;487346;244;1338;-44
2021/05/01 11:04:01;;;;;;;;;;;18.40;45.00;;;;;;487255;243;1837;-44
2021/05/01 11:06:02;;;;;;;;;;;18.30;45.10;;;;;;487368;243;1165;-44
2021/05/01 11:08:04;;;;;;;;;;;18.30;45.30;;;;;;487497;244;1147;-44
2021/05/01 11:10:05;;;;;;;;;;;18.20;45.30;;;;;;487294;244;1111;-44
2021/05/01 11:12:06;;;;;;;;;;;18.20;45.50;;;;;;487291;244;1077;-44
2021/05/01 11:14:08;;;;;;;;;;;18.10;45.50;;;;;;487325;244;1120;-44
2021/05/01 11:16:09;;;;;;;;;;;18.10;45.60;;;;;;487300;244;1108;-44
2021/05/01 11:18:10;;;;;;;;;;;18.10;45.60;;;;;;487281;244;1058;-44
2021/05/01 11:20:12;;;;;;;;;;;18.10;45.60;;;;;;487180;244;2194;-44
2021/05/01 11:22:13;;;;;;;;;;;18.10;45.60;;;;;;487167;244;1161;-44
2021/05/01 11:24:14;;;;;;;;;;;18.10;45.60;;;;;;487259;244;1116;-44
2021/05/01 11:26:16;;;;;;;;;;;18.10;45.70;;;;;;487205;243;1376;-44
2021/05/01 11:28:17;;;;;;;;;;;18.00;45.70;;;;;;487238;244;1112;-44
2021/05/01 11:30:18;;;;;;;;;;;18.00;45.60;;;;;;487495;237;1306;-44
2021/05/01 11:32:19;;;;;;;;;;;18.00;45.70;;;;;;487224;243;1214;-44
2021/05/01 11:34:21;;;;;;;;;;;18.00;45.70;;;;;;487731;243;1071;-44
2021/05/01 11:36:22;;;;;;;;;;;18.00;45.80;;;;;;487300;241;1228;-44
2021/05/01 11:38:24;;;;;;;;;;;18.00;45.90;;;;;;487265;244;1064;-44
2021/05/01 11:40:25;;;;;;;;;;;17.90;45.80;;;;;;487229;244;2187;-44
2021/05/01 11:42:26;;;;;;;;;;;17.90;45.80;;;;;;487415;244;1296;-44
2021/05/01 11:44:27;;;;;;;;;;;17.90;45.80;;;;;;487742;244;1086;-44
2021/05/01 11:46:29;;;;;;;;;;;18.00;45.90;;;;;;487295;244;1278;-44
2021/05/01 11:48:31;;;;;;;;;;;17.90;45.90;;;;;;487210;244;1066;-44
2021/05/01 11:50:32;;;;;;;;;;;17.90;45.90;;;;;;487134;244;1117;-44
2021/05/01 11:52:33;;;;;;;;;;;17.90;45.90;;;;;;487619;243;1319;-44
2021/05/01 11:54:35;;;;;;;;;;;17.90;45.90;;;;;;487325;244;1076;-44
2021/05/01 11:56:36;;;;;;;;;;;17.90;45.90;;;;;;487302;240;1632;-44